Terminal Aerodrome Forecast
Issued by NWS

Home | Current Version | Previous Version | Text Only | Print | Product List | Glossary On
Versions: 1 2 3 4 5 6 7 8 9 10 11 12 13 14 15 16 17 18 19 20
825
FTUS41 KGYX 240910 AAA
TAFLEB
TAF AMD
KLEB 240910Z 2409/2506 00000KT P6SM SCT100 BKN250
     FM241400 19006KT 5SM -SN BKN025 OVC050
      TEMPO 2414/2418 2SM -SN BKN015 OVC025
     FM241800 19006KT 2SM -SN BKN015 OVC025
     FM242300 18004KT P6SM -SHRA BKN007 OVC025=

USA.gov is the U.S. government's official web portal to all federal, state and local government web resources and services.